createdAt,value
2023-01-28T00:00:55.815Z,1.97
2023-01-28T00:03:26.287Z,1.99
2023-01-28T00:06:05.288Z,2.01
2023-01-28T00:08:33.921Z,2.03
2023-01-28T00:11:04.805Z,2.03
2023-01-28T00:13:33.883Z,2.03
2023-01-28T00:16:08.577Z,2.01
2023-01-28T00:18:37.785Z,2.02
2023-01-28T00:21:12.644Z,2.04
2023-01-28T00:23:43.297Z,2.06
2023-01-28T00:26:14.013Z,2.05
2023-01-28T00:28:44.116Z,2.04
2023-01-28T00:31:18.591Z,2.03
2023-01-28T00:33:48.465Z,2.02
2023-01-28T00:36:18.183Z,2.02
2023-01-28T00:38:54.805Z,2.01
2023-01-28T00:41:25.798Z,2.00
2023-01-28T00:43:54.564Z,1.99
2023-01-28T00:46:23.663Z,1.99
2023-01-28T00:48:52.601Z,1.97
2023-01-28T00:51:21.454Z,1.97
2023-01-28T00:53:50.541Z,1.96
2023-01-28T00:56:19.878Z,1.95
2023-01-28T00:58:48.075Z,1.92
2023-01-28T01:01:27.747Z,1.89
2023-01-28T01:04:03.154Z,1.87
2023-01-28T01:06:35.650Z,1.85
2023-01-28T01:09:08.109Z,1.83
2023-01-28T01:11:37.058Z,1.83
2023-01-28T01:14:07.347Z,1.85
2023-01-28T01:16:36.409Z,1.88
2023-01-28T01:19:04.852Z,1.90
2023-01-28T01:21:33.012Z,1.92
2023-01-28T01:24:01.405Z,1.94
2023-01-28T01:26:30.116Z,1.97
2023-01-28T01:28:58.899Z,1.97
2023-01-28T01:31:27.148Z,1.95
2023-01-28T01:33:55.317Z,1.95
2023-01-28T01:36:23.734Z,1.96
2023-01-28T01:38:55.554Z,1.95
2023-01-28T01:41:30.987Z,1.95
2023-01-28T01:44:01.714Z,1.92
2023-01-28T01:46:44.441Z,1.88
2023-01-28T01:49:21.378Z,1.86
2023-01-28T01:51:54.531Z,1.86
2023-01-28T01:54:27.514Z,1.82
2023-01-28T01:57:00.205Z,1.79
2023-01-28T01:59:30.888Z,1.79
2023-01-28T02:02:03.727Z,1.79
2023-01-28T02:04:36.667Z,1.79
2023-01-28T02:07:06.077Z,1.77
2023-01-28T02:09:36.716Z,1.77
2023-01-28T02:12:13.934Z,1.73
2023-01-28T02:14:50.158Z,1.75
2023-01-28T02:17:18.855Z,1.71
2023-01-28T02:20:02.365Z,1.71
2023-01-28T02:22:39.956Z,1.72
2023-01-28T02:25:20.161Z,1.73
2023-01-28T02:28:13.067Z,1.74
2023-01-28T02:31:22.031Z,1.76
2023-01-28T02:34:02.270Z,1.80
2023-01-28T02:36:41.299Z,1.82
2023-01-28T02:39:20.730Z,1.82
2023-01-28T02:42:13.675Z,1.82
2023-01-28T02:44:42.383Z,1.81
2023-01-28T02:47:31.094Z,1.81
2023-01-28T02:50:04.805Z,1.84
2023-01-28T02:53:01.150Z,1.81
2023-01-28T02:55:54.204Z,1.79
2023-01-28T02:58:41.969Z,1.78
2023-01-28T03:01:25.418Z,1.80
2023-01-28T03:03:59.534Z,1.78
2023-01-28T03:06:51.163Z,1.76
2023-01-28T03:09:22.566Z,1.77
2023-01-28T03:12:24.534Z,1.77
2023-01-28T03:15:15.834Z,1.78
2023-01-28T03:18:17.551Z,1.78
2023-01-28T03:21:13.693Z,1.82
2023-01-28T03:24:09.247Z,1.86
2023-01-28T03:27:13.889Z,1.85
2023-01-28T03:30:03.960Z,1.86
2023-01-28T03:32:53.170Z,1.89
2023-01-28T03:35:42.805Z,1.88
2023-01-28T03:38:23.619Z,1.76
2023-01-28T03:40:57.293Z,1.64
2023-01-28T03:43:26.281Z,1.53
2023-01-28T03:45:55.701Z,1.47
2023-01-28T03:48:26.373Z,1.44
2023-01-28T03:50:56.479Z,1.48
2023-01-28T03:53:24.929Z,1.56
2023-01-28T03:55:54.615Z,1.62
2023-01-28T03:58:46.553Z,1.66
2023-01-28T04:01:15.177Z,1.71
2023-01-28T04:03:43.927Z,1.76
2023-01-28T04:06:16.561Z,1.79
2023-01-28T04:09:17.522Z,1.77
2023-01-28T04:11:58.348Z,1.74
2023-01-28T04:14:35.278Z,1.68
2023-01-28T04:17:10.832Z,1.59
2023-01-28T04:19:40.419Z,1.56
2023-01-28T04:22:11.587Z,1.61
2023-01-28T04:24:41.629Z,1.67
2023-01-28T04:27:10.150Z,1.68
2023-01-28T04:29:38.479Z,1.68
2023-01-28T04:32:29.490Z,1.67
2023-01-28T04:35:12.549Z,1.65
2023-01-28T04:38:07.000Z,1.70
2023-01-28T04:40:54.805Z,1.70
2023-01-28T04:43:28.630Z,1.71
2023-01-28T04:46:18.140Z,1.73
2023-01-28T04:48:56.836Z,1.73
2023-01-28T04:51:43.943Z,1.74
2023-01-28T04:54:33.364Z,1.75
2023-01-28T04:57:04.048Z,1.75
2023-01-28T04:59:33.056Z,1.73
2023-01-28T05:02:02.844Z,1.73
2023-01-28T05:04:31.647Z,1.72
2023-01-28T05:06:59.826Z,1.74
2023-01-28T05:09:33.340Z,1.73
2023-01-28T05:12:02.001Z,1.75
2023-01-28T05:14:32.503Z,1.78
2023-01-28T05:17:09.680Z,1.79
2023-01-28T05:19:37.994Z,1.80
2023-01-28T05:22:11.499Z,1.84
2023-01-28T05:24:43.888Z,1.88
2023-01-28T05:27:12.554Z,1.89
2023-01-28T05:29:40.902Z,1.90
2023-01-28T05:32:09.601Z,1.94
2023-01-28T05:34:37.923Z,1.96
2023-01-28T05:37:11.641Z,1.93
2023-01-28T05:39:40.793Z,1.85
2023-01-28T05:42:09.625Z,1.83
2023-01-28T05:44:43.486Z,1.82
2023-01-28T05:47:18.146Z,1.85
2023-01-28T05:49:46.661Z,1.90
2023-01-28T05:52:33.454Z,1.95
2023-01-28T05:55:01.932Z,1.99
2023-01-28T05:57:30.492Z,2.02
2023-01-28T05:59:58.742Z,2.01
2023-01-28T06:02:27.295Z,2.02
2023-01-28T06:04:58.314Z,2.04
2023-01-28T06:07:26.471Z,2.06
2023-01-28T06:09:54.731Z,2.07
2023-01-28T06:19:36.408Z,2.10
2023-01-28T06:22:04.915Z,2.09
2023-01-28T06:24:33.966Z,2.04
2023-01-28T06:27:02.191Z,2.01
2023-01-28T06:29:30.757Z,2.03
2023-01-28T06:31:59.761Z,2.05
2023-01-28T06:34:28.023Z,2.06
2023-01-28T06:36:56.261Z,2.08
2023-01-28T06:39:24.376Z,2.09
2023-01-28T06:41:52.674Z,2.07
2023-01-28T06:44:20.819Z,2.07
2023-01-28T06:46:48.848Z,2.05
2023-01-28T06:49:17.255Z,2.03
2023-01-28T06:51:45.458Z,2.01
2023-01-28T06:54:13.849Z,2.01
2023-01-28T06:56:42.331Z,2.02
2023-01-28T06:59:10.383Z,2.02
2023-01-28T07:01:38.722Z,2.01
2023-01-28T07:04:07.362Z,1.98
2023-01-28T07:06:35.455Z,1.96
2023-01-28T07:09:03.981Z,1.96
2023-01-28T07:11:32.466Z,1.95
2023-01-28T07:14:00.648Z,1.94
2023-01-28T07:16:28.750Z,1.95
2023-01-28T07:18:57.100Z,1.96
2023-01-28T07:21:25.172Z,1.93
2023-01-28T07:23:53.305Z,1.88
2023-01-28T07:26:21.837Z,1.85
2023-01-28T07:28:50.879Z,1.87
2023-01-28T07:31:18.988Z,1.92
2023-01-28T07:33:47.125Z,1.94
2023-01-28T07:36:15.444Z,1.93
2023-01-28T07:38:43.439Z,1.94
2023-01-28T07:41:11.680Z,1.98
2023-01-28T07:43:40.076Z,2.01
2023-01-28T07:46:08.434Z,2.03
2023-01-28T07:48:36.598Z,2.03
2023-01-28T07:51:04.906Z,2.01
2023-01-28T07:53:32.968Z,2.00
2023-01-28T07:56:02.374Z,1.99
2023-01-28T07:58:30.632Z,1.98
2023-01-28T08:01:01.804Z,1.98
2023-01-28T08:03:30.188Z,1.98
2023-01-28T08:05:58.554Z,1.96
2023-01-28T08:08:27.457Z,1.97
2023-01-28T08:10:55.708Z,2.00
2023-01-28T08:13:23.993Z,2.05
2023-01-28T08:15:56.409Z,2.07
2023-01-28T08:18:24.705Z,2.06
2023-01-28T08:21:00.146Z,2.01
2023-01-28T08:23:29.226Z,2.03
2023-01-28T08:25:59.256Z,2.07
2023-01-28T08:28:27.790Z,2.10
2023-01-28T08:30:56.161Z,2.12
2023-01-28T08:33:24.320Z,2.07
2023-01-28T08:35:52.700Z,1.97
2023-01-28T08:38:20.959Z,1.93
2023-01-28T08:40:55.794Z,1.98
2023-01-28T08:43:24.048Z,2.04
2023-01-28T08:45:52.279Z,2.08
2023-01-28T08:48:20.768Z,2.15
2023-01-28T08:50:50.888Z,2.15
2023-01-28T08:53:20.472Z,2.09
2023-01-28T08:55:48.700Z,2.03
2023-01-28T08:58:18.690Z,1.95
2023-01-28T09:00:47.809Z,1.87
2023-01-28T09:03:17.397Z,1.82
2023-01-28T09:05:45.831Z,1.75
2023-01-28T09:08:15.382Z,1.81
2023-01-28T09:10:44.357Z,1.91
2023-01-28T09:13:15.798Z,1.96
2023-01-28T09:15:44.095Z,2.01
2023-01-28T09:18:12.226Z,2.06
2023-01-28T09:20:40.586Z,2.12
2023-01-28T09:23:09.188Z,2.17
2023-01-28T09:25:37.552Z,2.21
2023-01-28T09:28:06.162Z,2.25
2023-01-28T09:30:37.087Z,2.29
2023-01-28T09:33:06.729Z,2.31
2023-01-28T09:35:36.077Z,2.32
2023-01-28T09:38:04.252Z,2.34
2023-01-28T09:40:42.348Z,2.37
2023-01-28T09:43:31.165Z,2.37
2023-01-28T09:46:02.962Z,2.39
2023-01-28T09:48:42.897Z,2.44
2023-01-28T09:51:29.863Z,2.44
2023-01-28T09:54:05.215Z,2.45
2023-01-28T09:56:40.485Z,2.47
2023-01-28T09:59:23.359Z,2.49
2023-01-28T10:02:47.003Z,2.52
2023-01-28T10:05:26.127Z,2.53
2023-01-28T10:08:00.176Z,2.54
2023-01-28T10:10:36.170Z,2.58
2023-01-28T10:13:54.219Z,2.60
2023-01-28T10:16:34.844Z,2.59
2023-01-28T10:19:29.373Z,2.57
2023-01-28T10:22:14.933Z,2.47
2023-01-28T10:24:49.887Z,2.45
2023-01-28T10:27:22.655Z,2.45
2023-01-28T10:29:53.149Z,2.46
2023-01-28T10:32:38.641Z,2.48
2023-01-28T10:35:06.943Z,2.49
2023-01-28T10:37:37.897Z,2.48
2023-01-28T10:40:13.828Z,2.44
2023-01-28T10:42:43.126Z,2.47
2023-01-28T10:45:43.116Z,2.47
2023-01-28T10:48:26.853Z,2.49
2023-01-28T10:50:59.765Z,2.55
2023-01-28T10:53:34.264Z,2.59
2023-01-28T10:56:04.016Z,2.63
2023-01-28T10:58:36.227Z,2.65
2023-01-28T11:01:07.389Z,2.68
2023-01-28T11:03:35.842Z,2.69
2023-01-28T11:06:04.147Z,2.69
2023-01-28T11:08:43.981Z,2.71
2023-01-28T11:11:15.732Z,2.73
2023-01-28T11:13:51.962Z,2.76
2023-01-28T11:16:21.144Z,2.81
2023-01-28T11:18:55.660Z,2.86
2023-01-28T11:21:29.505Z,2.91
2023-01-28T11:24:02.672Z,2.92
2023-01-28T11:26:39.689Z,2.90
2023-01-28T11:29:23.159Z,2.86
2023-01-28T11:31:51.868Z,2.86
2023-01-28T11:34:21.026Z,2.87
2023-01-28T11:37:04.060Z,2.88
2023-01-28T11:39:32.284Z,2.89
2023-01-28T11:42:12.238Z,2.90
2023-01-28T11:44:40.686Z,2.91
2023-01-28T11:47:44.647Z,2.92
2023-01-28T11:50:54.041Z,2.93
2023-01-28T11:53:40.586Z,2.94
2023-01-28T11:56:12.025Z,2.95
2023-01-28T11:59:02.280Z,2.96
2023-01-28T12:01:42.049Z,2.95
2023-01-28T12:04:25.840Z,2.98
2023-01-28T12:07:26.541Z,3.00
2023-01-28T12:10:18.956Z,3.04
2023-01-28T12:13:10.001Z,3.03
2023-01-28T12:15:53.556Z,3.00
2023-01-28T12:18:31.087Z,2.99
2023-01-28T12:21:10.695Z,2.98
2023-01-28T12:23:51.367Z,2.94
2023-01-28T12:26:35.884Z,2.93
2023-01-28T12:29:34.583Z,3.00
2023-01-28T12:32:39.402Z,2.99
2023-01-28T12:35:18.718Z,2.92
2023-01-28T12:38:03.327Z,2.96
2023-01-28T12:40:45.183Z,2.98
2023-01-28T12:43:24.219Z,3.01
2023-01-28T12:45:57.831Z,3.01
2023-01-28T12:48:41.757Z,2.98
2023-01-28T12:51:23.486Z,2.88
2023-01-28T12:54:04.866Z,2.80
2023-01-28T12:56:43.438Z,2.83
2023-01-28T12:59:21.254Z,2.78
2023-01-28T13:01:55.477Z,2.83
2023-01-28T13:05:01.234Z,2.92
2023-01-28T13:07:44.481Z,2.89
2023-01-28T13:10:42.214Z,2.89
2023-01-28T13:13:30.074Z,2.95
2023-01-28T13:15:58.642Z,3.00
2023-01-28T13:18:33.813Z,3.07
2023-01-28T13:21:06.407Z,3.10
2023-01-28T13:23:39.899Z,3.07
2023-01-28T13:26:21.894Z,3.01
2023-01-28T13:28:53.239Z,2.98
2023-01-28T13:31:23.963Z,3.01
2023-01-28T13:33:55.011Z,3.05
2023-01-28T13:36:29.137Z,3.11
2023-01-28T13:39:02.784Z,3.16
2023-01-28T13:41:40.436Z,3.20
2023-01-28T13:44:32.111Z,3.21
2023-01-28T13:47:09.206Z,3.14
2023-01-28T13:49:47.053Z,3.08
2023-01-28T13:52:20.421Z,3.10
2023-01-28T13:54:55.994Z,3.12
2023-01-28T13:57:58.044Z,3.09
2023-01-28T14:01:13.135Z,3.08
2023-01-28T14:04:05.663Z,3.02
2023-01-28T14:07:11.008Z,3.02
2023-01-28T14:09:49.590Z,3.05
2023-01-28T14:12:36.850Z,3.05
2023-01-28T14:15:32.807Z,2.97
2023-01-28T14:18:01.526Z,2.95
2023-01-28T14:20:37.909Z,2.96
2023-01-28T14:23:16.763Z,2.97
2023-01-28T14:25:48.138Z,3.01
2023-01-28T14:28:32.718Z,2.98
2023-01-28T14:31:27.436Z,2.95
2023-01-28T14:34:14.645Z,2.95
2023-01-28T14:36:45.952Z,2.94
2023-01-28T14:39:19.722Z,2.84
2023-01-28T14:41:51.089Z,2.82
2023-01-28T14:44:41.008Z,2.81
2023-01-28T14:47:46.324Z,2.71
2023-01-28T14:50:26.587Z,2.71
2023-01-28T14:53:17.667Z,2.60
2023-01-28T14:56:23.552Z,2.50
2023-01-28T14:59:04.907Z,2.53
2023-01-28T15:01:33.215Z,2.58
2023-01-28T15:04:01.458Z,2.62
2023-01-28T15:06:36.090Z,2.66
2023-01-28T15:09:09.411Z,2.68
2023-01-28T15:11:41.435Z,2.61
2023-01-28T15:14:36.435Z,2.58
2023-01-28T15:17:04.901Z,2.60
2023-01-28T15:19:36.011Z,2.63
2023-01-28T15:22:07.119Z,2.62
2023-01-28T15:24:36.272Z,2.61
2023-01-28T15:27:04.445Z,2.58
2023-01-28T15:29:35.546Z,2.59
2023-01-28T15:32:05.631Z,2.59
2023-01-28T15:34:33.715Z,2.61
2023-01-28T15:37:02.204Z,2.59
2023-01-28T15:39:30.549Z,2.59
2023-01-28T15:42:03.407Z,2.60
2023-01-28T15:44:35.155Z,2.62
2023-01-28T15:47:14.601Z,2.62
2023-01-28T15:49:47.124Z,2.63
2023-01-28T15:52:15.479Z,2.63
2023-01-28T15:54:48.649Z,2.64
2023-01-28T15:57:21.081Z,2.61
2023-01-28T15:59:51.337Z,2.60
2023-01-28T16:02:22.681Z,2.59
2023-01-28T16:05:01.885Z,2.60
2023-01-28T16:07:43.164Z,2.58
2023-01-28T16:10:21.779Z,2.58
2023-01-28T16:12:53.736Z,2.58
2023-01-28T16:15:22.412Z,2.57
2023-01-28T16:17:52.465Z,2.57
2023-01-28T16:20:30.196Z,2.57
2023-01-28T16:23:02.375Z,2.53
2023-01-28T16:25:33.027Z,2.51
2023-01-28T16:28:02.719Z,2.49
2023-01-28T16:30:30.863Z,2.49
2023-01-28T16:33:00.380Z,2.48
2023-01-28T16:35:47.323Z,2.46
2023-01-28T16:38:18.992Z,2.45
2023-01-28T16:40:47.876Z,2.43
2023-01-28T16:43:17.686Z,2.41
2023-01-28T16:45:46.383Z,2.39
2023-01-28T16:48:14.685Z,2.38
2023-01-28T16:50:43.512Z,2.36
2023-01-28T16:53:20.080Z,2.35
2023-01-28T16:55:52.099Z,2.31
2023-01-28T16:58:24.849Z,2.27
2023-01-28T17:00:53.470Z,2.26
2023-01-28T17:03:23.425Z,2.24
2023-01-28T17:05:51.782Z,2.22
2023-01-28T17:08:19.871Z,2.21
2023-01-28T17:10:55.118Z,2.21
2023-01-28T17:13:23.294Z,2.20
2023-01-28T17:15:52.913Z,2.18
2023-01-28T17:18:21.175Z,2.17
2023-01-28T17:20:49.613Z,2.14
2023-01-28T17:23:23.079Z,2.13
2023-01-28T17:25:51.217Z,2.11
2023-01-28T17:28:19.843Z,2.09
2023-01-28T17:30:48.045Z,2.06
2023-01-28T17:33:16.165Z,2.03
2023-01-28T17:35:47.333Z,2.01
2023-01-28T17:38:17.254Z,1.99
2023-01-28T17:40:45.548Z,1.97
2023-01-28T17:43:13.629Z,1.94
2023-01-28T17:45:41.867Z,1.91
2023-01-28T17:48:10.986Z,1.89
2023-01-28T17:50:40.308Z,1.86
2023-01-28T17:53:10.392Z,1.84
2023-01-28T17:55:38.733Z,1.81
2023-01-28T17:58:06.863Z,1.78
2023-01-28T18:00:34.953Z,1.76
2023-01-28T18:03:03.550Z,1.74
2023-01-28T18:05:31.818Z,1.71
2023-01-28T18:08:00.136Z,1.67
2023-01-28T18:10:28.536Z,1.64
2023-01-28T18:12:56.911Z,1.63
2023-01-28T18:15:25.363Z,1.61
2023-01-28T18:17:53.471Z,1.60
2023-01-28T18:20:21.667Z,1.60
2023-01-28T18:22:49.747Z,1.61
2023-01-28T18:25:19.149Z,1.62
2023-01-28T18:27:47.694Z,1.61
2023-01-28T18:30:16.536Z,1.62
2023-01-28T18:32:45.086Z,1.63
2023-01-28T18:35:13.511Z,1.65
2023-01-28T18:37:42.147Z,1.66
2023-01-28T18:40:11.396Z,1.65
2023-01-28T18:42:39.864Z,1.62
2023-01-28T18:45:08.419Z,1.63
2023-01-28T18:47:36.681Z,1.62
2023-01-28T18:50:05.436Z,1.62
2023-01-28T18:52:33.528Z,1.63
2023-01-28T18:55:01.733Z,1.65
2023-01-28T18:57:30.042Z,1.67
2023-01-28T18:59:58.249Z,1.67
2023-01-28T19:02:26.472Z,1.67
2023-01-28T19:04:57.927Z,1.68
2023-01-28T19:07:26.265Z,1.67
2023-01-28T19:09:54.532Z,1.67
2023-01-28T19:12:23.321Z,1.69
2023-01-28T19:14:51.607Z,1.71
2023-01-28T19:17:19.844Z,1.73
2023-01-28T19:19:48.134Z,1.73
2023-01-28T19:22:17.191Z,1.74
2023-01-28T19:24:45.315Z,1.77
2023-01-28T19:27:13.730Z,1.78
2023-01-28T19:29:42.256Z,1.77
2023-01-28T19:32:10.349Z,1.78
2023-01-28T19:34:38.382Z,1.82
2023-01-28T19:37:06.576Z,1.84
2023-01-28T19:39:35.435Z,1.84
2023-01-28T19:42:03.650Z,1.86
2023-01-28T19:44:33.022Z,1.82
2023-01-28T19:47:02.366Z,1.78
2023-01-28T19:49:31.105Z,1.78
2023-01-28T19:51:59.405Z,1.82
2023-01-28T19:54:27.755Z,1.84
2023-01-28T19:56:56.034Z,1.86
2023-01-28T19:59:24.281Z,1.83
2023-01-28T20:01:52.520Z,1.86
2023-01-28T20:04:20.875Z,1.88
2023-01-28T20:06:50.035Z,1.84
2023-01-28T20:09:22.172Z,1.76
2023-01-28T20:11:50.451Z,1.75
2023-01-28T20:14:19.707Z,1.73
2023-01-28T20:16:49.084Z,1.65
2023-01-28T20:19:19.129Z,1.63
2023-01-28T20:21:47.531Z,1.66
2023-01-28T20:24:16.346Z,1.65
2023-01-28T20:26:45.887Z,1.66
2023-01-28T20:29:22.352Z,1.68
2023-01-28T20:32:09.047Z,1.70
2023-01-28T20:34:39.540Z,1.74
2023-01-28T20:37:10.432Z,1.72
2023-01-28T20:39:38.756Z,1.75
2023-01-28T20:42:09.689Z,1.74
2023-01-28T20:44:38.097Z,1.64
2023-01-28T20:47:06.808Z,1.65
2023-01-28T20:49:35.159Z,1.67
2023-01-28T20:52:04.654Z,1.68
2023-01-28T20:54:33.194Z,1.67
2023-01-28T20:57:01.483Z,1.69
2023-01-28T20:59:31.489Z,1.74
2023-01-28T21:02:01.050Z,1.77
2023-01-28T21:04:29.386Z,1.81
2023-01-28T21:06:58.111Z,1.82
2023-01-28T21:09:27.966Z,1.85
2023-01-28T21:11:56.565Z,1.88
2023-01-28T21:14:25.022Z,1.90
2023-01-28T21:16:53.233Z,1.92
2023-01-28T21:19:21.756Z,1.93
2023-01-28T21:21:50.161Z,1.95
2023-01-28T21:24:18.469Z,1.95
2023-01-28T21:26:46.751Z,1.93
2023-01-28T21:29:15.463Z,1.92
2023-01-28T21:31:44.393Z,1.92
2023-01-28T21:34:13.480Z,1.91
2023-01-28T21:36:41.964Z,1.93
2023-01-28T21:39:10.417Z,1.92
2023-01-28T21:41:38.578Z,1.91
2023-01-28T21:44:07.089Z,1.88
2023-01-28T21:46:35.553Z,1.84
2023-01-28T21:49:05.593Z,1.85
2023-01-28T21:51:39.230Z,1.84
2023-01-28T21:54:13.251Z,1.79
2023-01-28T21:56:45.589Z,1.80
2023-01-28T21:59:29.795Z,1.77
2023-01-28T22:02:01.186Z,1.77
2023-01-28T22:04:35.152Z,1.76
2023-01-28T22:07:05.739Z,1.74
2023-01-28T22:09:34.684Z,1.73
2023-01-28T22:12:05.306Z,1.77
2023-01-28T22:14:34.608Z,1.81
2023-01-28T22:17:03.647Z,1.80
2023-01-28T22:19:32.004Z,1.79
2023-01-28T22:22:00.245Z,1.77
2023-01-28T22:24:29.142Z,1.71
2023-01-28T22:26:57.717Z,1.63
2023-01-28T22:29:26.250Z,1.50
2023-01-28T22:31:54.984Z,1.48
2023-01-28T22:34:23.673Z,1.50
2023-01-28T22:36:52.029Z,1.53
2023-01-28T22:39:20.242Z,1.55
2023-01-28T22:41:48.314Z,1.57
2023-01-28T22:44:16.896Z,1.59
2023-01-28T22:46:45.155Z,1.58
2023-01-28T22:49:15.108Z,1.54
2023-01-28T22:51:43.448Z,1.51
2023-01-28T22:54:12.069Z,1.51
2023-01-28T22:56:40.444Z,1.51
2023-01-28T22:59:10.340Z,1.50
2023-01-28T23:01:38.386Z,1.51
2023-01-28T23:04:06.510Z,1.55
2023-01-28T23:06:34.640Z,1.54
2023-01-28T23:09:03.136Z,1.45
2023-01-28T23:11:31.299Z,1.46
2023-01-28T23:14:21.430Z,1.48
2023-01-28T23:17:08.744Z,1.48
2023-01-28T23:19:55.809Z,1.49
2023-01-28T23:22:46.999Z,1.50
2023-01-28T23:25:15.457Z,1.50
2023-01-28T23:27:44.375Z,1.51
2023-01-28T23:30:14.007Z,1.49
2023-01-28T23:32:48.531Z,1.48
2023-01-28T23:35:19.081Z,1.44
2023-01-28T23:37:48.161Z,1.44
2023-01-28T23:40:16.955Z,1.47
2023-01-28T23:42:49.678Z,1.51
2023-01-28T23:45:18.997Z,1.52
2023-01-28T23:47:47.857Z,1.42
2023-01-28T23:50:16.578Z,1.41
2023-01-28T23:52:45.647Z,1.37
2023-01-28T23:55:13.880Z,1.37
2023-01-28T23:57:42.277Z,1.37
